Weather at Mellomar Airport

Public forecast

Using degrees Fahrenheit for public forecast. Weather courtesy of forecast.io.

Closest aviation weather report (METAR) to Mellomar Airport

Closest report is Joint Base Andrews, 13.1 nm (24.3 km) NW.

2024/06/19 02:55 (retrieved 24 minutes ago)

KADW 190255Z AUTO 17005KT 10SM CLR 23/18 A3025 RMK AO2 SLP248 T02320176 52017

Closest aviation forecast (TAF) to Mellomar Airport

Forecast is more than 6 hours old.

Closest forecast is Davison Army Air Field, 24.1 nm (44.6 km) W.

2024/06/18 20:27 (retrieved 7 hours ago)

TAF TAF KDAA 182000Z 1820/2002 15009KT 9999 FEW040 QNH3017INS TX33/1820Z TN20/1908Z LAST NO AMDS AFT 1901 NEXT 2012